Valley View, Ohio
Current Conditions -  °F | °C
As of 12:53 PM on Monday 22 Dec 2014 (Local Time) from KBKL Reporting Station
Broken Clouds Broken Clouds  
Wind Chill: 35°   Ceiling: 4900
Heat Index: 41°   Visibility: 10mi
Dew Point: 29°   Wind: 10mph
Humidity: 62%   Direction: 140°SE
Pressure: 30.01"   Gusts: NA
Location:  41.3833°N, 81.6531°W
Report Text: KBKL 221753Z 14009KT 10SM BKN049 05/M02 A3001 RMK AO2 SLP165 T00501017 10056 21028 58028
Loading
Personal Weather Stations






























Interactive Weather Map New forecast layout! Learn more

10-Day Weather Forecast

Advertisements
Track Severe Weather on mobile